createdAt,value
2024-05-09T00:04:27.781Z,33.2
2024-05-09T00:09:59.275Z,29.3
2024-05-09T00:15:30.818Z,33.1
2024-05-09T00:21:03.252Z,31.2
2024-05-09T00:26:34.097Z,32.4
2024-05-09T00:32:05.786Z,30.5
2024-05-09T00:37:37.225Z,32.4
2024-05-09T00:43:09.113Z,30.6
2024-05-09T00:48:40.889Z,32.2
2024-05-09T00:54:12.348Z,33.9
2024-05-09T00:59:43.845Z,32.3
2024-05-09T01:05:19.903Z,32.6
2024-05-09T01:10:51.723Z,28.9
2024-05-09T01:16:23.203Z,28.7
2024-05-09T01:21:54.626Z,31.7
2024-05-09T01:27:26.381Z,32.5
2024-05-09T01:32:58.365Z,28.4
2024-05-09T01:38:29.970Z,29.5
2024-05-09T01:44:01.285Z,30.1
2024-05-09T01:49:34.235Z,26.6
2024-05-09T01:55:07.098Z,25.0
2024-05-09T02:00:42.766Z,23.6
2024-05-09T02:06:14.195Z,24.5
2024-05-09T02:11:45.765Z,25.6
2024-05-09T02:17:17.633Z,30.8
2024-05-09T02:22:49.108Z,26.2
2024-05-09T02:28:20.705Z,30.7
2024-05-09T02:33:52.846Z,28.8
2024-05-09T02:39:23.861Z,29.6
2024-05-09T02:44:55.511Z,35.0
2024-05-09T02:50:39.082Z,32.3
2024-05-09T02:55:58.859Z,31.3
2024-05-09T03:01:30.639Z,33.4
2024-05-09T03:07:06.514Z,36.7
2024-05-09T03:12:39.616Z,35.3
2024-05-09T03:18:10.330Z,31.1
2024-05-09T03:23:42.547Z,34.3
2024-05-09T03:29:13.078Z,41.2
2024-05-09T03:34:44.672Z,29.4
2024-05-09T03:40:26.632Z,29.1
2024-05-09T03:45:48.005Z,30.3
2024-05-09T03:51:19.671Z,28.1
2024-05-09T03:56:51.105Z,28.7
2024-05-09T04:02:22.940Z,32.5
2024-05-09T04:08:01.720Z,35.3
2024-05-09T04:13:32.377Z,36.8
2024-05-09T04:19:04.240Z,33.8
2024-05-09T04:24:35.563Z,37.8
2024-05-09T04:30:21.748Z,35.7
2024-05-09T04:35:39.472Z,34.5
2024-05-09T04:41:10.741Z,44.1
2024-05-09T04:46:42.589Z,43.4
2024-05-09T04:52:13.825Z,43.5
2024-05-09T04:57:45.403Z,42.4
2024-05-09T05:03:18.143Z,40.5
2024-05-09T05:08:53.004Z,42.0
2024-05-09T05:14:25.861Z,43.4
2024-05-09T05:19:56.742Z,45.5
2024-05-09T05:25:27.949Z,43.6
2024-05-09T05:30:59.872Z,48.0
2024-05-09T05:36:31.199Z,54.8
2024-05-09T05:42:02.928Z,54.0
2024-05-09T05:47:34.851Z,58.9
2024-05-09T05:53:06.572Z,55.2
2024-05-09T05:58:37.812Z,55.2
2024-05-09T06:04:09.662Z,58.4
2024-05-09T06:09:50.419Z,56.6
2024-05-09T06:15:19.068Z,56.5
2024-05-09T06:20:50.809Z,55.0
2024-05-09T06:26:22.516Z,55.5
2024-05-09T06:31:57.087Z,62.2
2024-05-09T06:37:25.665Z,58.5
2024-05-09T06:42:57.245Z,53.6
2024-05-09T06:48:29.233Z,58.7
2024-05-09T06:54:00.525Z,64.4
2024-05-09T06:59:32.383Z,57.4
2024-05-09T07:05:04.215Z,56.4
2024-05-09T07:10:40.145Z,48.5
2024-05-09T07:16:11.398Z,51.4
2024-05-09T07:21:43.003Z,40.2
2024-05-09T07:27:14.644Z,41.2
2024-05-09T07:32:47.501Z,37.5
2024-05-09T07:38:18.219Z,29.1
2024-05-09T07:43:49.631Z,21.3
2024-05-09T07:54:53.334Z,12.3
2024-05-09T08:00:32.174Z,10.5
2024-05-09T08:05:56.296Z,12.0
2024-05-09T08:11:32.220Z,10.6
2024-05-09T08:17:03.840Z,8.4
2024-05-09T08:23:06.346Z,8.6
2024-05-09T08:28:07.423Z,8.9
2024-05-09T08:33:39.486Z,9.0
2024-05-09T08:39:10.298Z,8.4
2024-05-09T08:44:41.924Z,8.9
2024-05-09T08:50:29.267Z,8.7
2024-05-09T08:55:45.435Z,11.6
2024-05-09T09:01:17.283Z,8.4
2024-05-09T09:06:48.810Z,9.0
2024-05-09T09:12:26.849Z,7.7
2024-05-09T09:17:58.568Z,8.3
2024-05-09T09:23:30.192Z,7.2
2024-05-09T09:29:01.546Z,7.5
2024-05-09T09:34:33.372Z,6.0
2024-05-09T09:40:07.065Z,6.4
2024-05-09T09:45:36.517Z,6.9
2024-05-09T09:51:08.061Z,6.8
2024-05-09T09:56:39.635Z,5.3
2024-05-09T10:02:11.770Z,6.5
2024-05-09T10:07:42.968Z,6.5
2024-05-09T10:13:21.445Z,4.0
2024-05-09T10:18:53.658Z,5.5
2024-05-09T10:24:24.294Z,5.9
2024-05-09T10:29:55.919Z,3.6
2024-05-09T10:35:27.486Z,5.3
2024-05-09T10:40:59.146Z,3.8
2024-05-09T10:46:31.008Z,5.2
2024-05-09T10:52:02.488Z,4.2
2024-05-09T10:57:34.175Z,4.0
2024-05-09T11:03:05.716Z,3.8
2024-05-09T11:08:37.321Z,3.9
2024-05-09T11:14:13.421Z,3.3
2024-05-09T11:19:45.598Z,4.1
2024-05-09T11:25:17.003Z,3.4
2024-05-09T11:30:48.287Z,5.7
2024-05-09T11:36:19.993Z,4.2
2024-05-09T11:41:51.520Z,3.8
2024-05-09T11:47:23.376Z,3.0
2024-05-09T11:52:55.021Z,3.4
2024-05-09T11:58:26.497Z,3.2
2024-05-09T12:03:58.907Z,3.9
2024-05-09T12:09:29.774Z,4.9
2024-05-09T12:15:12.895Z,5.9
2024-05-09T12:20:44.190Z,4.2
2024-05-09T12:26:15.880Z,3.0
2024-05-09T12:31:47.554Z,4.8
2024-05-09T12:37:19.522Z,4.8
2024-05-09T12:42:50.673Z,5.2
2024-05-09T12:48:22.705Z,4.6
2024-05-09T12:53:53.943Z,3.1
2024-05-09T12:59:25.539Z,3.6
2024-05-09T13:04:57.431Z,3.0
2024-05-09T13:10:33.685Z,3.6
2024-05-09T13:16:04.965Z,3.4
2024-05-09T13:21:36.614Z,7.8
2024-05-09T13:27:10.575Z,5.6
2024-05-09T13:32:41.901Z,4.0
2024-05-09T13:38:13.326Z,3.7
2024-05-09T13:43:45.106Z,4.0
2024-05-09T13:49:17.617Z,6.0
2024-05-09T13:54:48.482Z,5.4
2024-05-09T14:05:52.847Z,4.2
2024-05-09T14:11:23.365Z,3.3
2024-05-09T14:17:01.541Z,3.4
2024-05-09T14:22:32.990Z,2.9
2024-05-09T14:28:04.718Z,4.8
2024-05-09T14:33:36.238Z,3.4
2024-05-09T14:39:07.721Z,3.7
2024-05-09T14:44:39.496Z,3.6
2024-05-09T14:50:23.897Z,5.1
2024-05-09T14:55:44.271Z,3.4
2024-05-09T15:01:14.917Z,3.5
2024-05-09T15:06:47.021Z,4.9
2024-05-09T15:12:17.699Z,3.0
2024-05-09T15:17:54.032Z,5.9
2024-05-09T15:23:25.376Z,2.6
2024-05-09T15:28:56.985Z,3.7
2024-05-09T15:34:28.722Z,2.9
2024-05-09T15:40:00.362Z,3.1
2024-05-09T15:45:32.102Z,2.9
2024-05-09T15:51:03.450Z,3.3
2024-05-09T15:56:35.111Z,3.5
2024-05-09T16:02:07.014Z,3.6
2024-05-09T16:07:38.911Z,4.5
2024-05-09T16:13:10.178Z,7.1
2024-05-09T16:18:46.113Z,4.1
2024-05-09T16:24:17.635Z,3.3
2024-05-09T16:29:49.229Z,3.8
2024-05-09T16:35:21.323Z,4.2
2024-05-09T16:40:54.425Z,3.7
2024-05-09T16:46:24.409Z,4.3
2024-05-09T16:51:55.961Z,4.8
2024-05-09T16:57:27.424Z,4.0
2024-05-09T17:02:59.380Z,6.0
2024-05-09T17:08:30.803Z,3.8
2024-05-09T17:14:02.344Z,3.6
2024-05-09T17:19:38.401Z,3.6
2024-05-09T17:25:09.989Z,3.8
2024-05-09T17:30:43.249Z,3.4
2024-05-09T17:36:13.331Z,4.0
2024-05-09T17:41:44.870Z,3.4
2024-05-09T17:47:16.515Z,5.8
2024-05-09T17:52:48.249Z,6.5
2024-05-09T17:58:20.281Z,3.5
2024-05-09T18:03:51.795Z,5.0
2024-05-09T18:09:23.016Z,3.5
2024-05-09T18:14:54.771Z,3.6
2024-05-09T18:20:44.121Z,3.4
2024-05-09T18:26:03.515Z,3.1
2024-05-09T18:31:34.073Z,4.1
2024-05-09T18:37:05.878Z,4.5
2024-05-09T18:42:37.291Z,4.1
2024-05-09T18:48:09.798Z,6.4
2024-05-09T18:53:43.986Z,4.2
2024-05-09T18:59:13.160Z,4.4
2024-05-09T19:04:44.536Z,4.2
2024-05-09T19:10:26.248Z,5.7
2024-05-09T19:15:47.207Z,4.5
2024-05-09T19:21:22.989Z,4.3
2024-05-09T19:26:55.078Z,4.2
2024-05-09T19:32:26.613Z,4.1
2024-05-09T19:37:57.999Z,5.2
2024-05-09T19:43:35.446Z,5.4
2024-05-09T19:49:02.481Z,3.8
2024-05-09T19:54:32.994Z,4.6
2024-05-09T20:00:06.228Z,4.3
2024-05-09T20:05:37.578Z,5.9
2024-05-09T20:11:07.675Z,4.7
2024-05-09T20:16:39.447Z,4.2
2024-05-09T20:22:15.587Z,4.5
2024-05-09T20:27:47.172Z,4.9
2024-05-09T20:33:18.695Z,5.4
2024-05-09T20:38:50.338Z,6.6
2024-05-09T20:44:21.927Z,5.0
2024-05-09T20:49:53.572Z,5.9
2024-05-09T20:55:25.238Z,6.3
2024-05-09T21:00:57.904Z,5.4
2024-05-09T21:06:28.416Z,6.9
2024-05-09T21:12:00.180Z,8.1
2024-05-09T21:17:31.877Z,4.9
2024-05-09T21:23:07.653Z,6.8
2024-05-09T21:28:39.388Z,5.1
2024-05-09T21:34:11.176Z,6.7
2024-05-09T21:39:42.962Z,6.5
2024-05-09T21:45:14.183Z,5.8
2024-05-09T21:50:45.924Z,6.9
2024-05-09T21:56:17.459Z,7.1
2024-05-09T22:01:49.305Z,5.9
2024-05-09T22:07:20.935Z,6.2
2024-05-09T22:12:52.362Z,6.7
2024-05-09T22:18:24.110Z,6.6
2024-05-09T22:23:59.977Z,6.9
2024-05-09T22:29:31.582Z,6.1
2024-05-09T22:35:03.441Z,5.5
2024-05-09T22:40:42.573Z,7.6
2024-05-09T22:46:06.523Z,5.2
2024-05-09T22:51:38.224Z,8.7
2024-05-09T22:57:09.860Z,5.7
2024-05-09T23:02:41.578Z,6.7
2024-05-09T23:08:13.126Z,7.3
2024-05-09T23:13:44.862Z,11.9
2024-05-09T23:19:16.455Z,8.0
2024-05-09T23:24:54.438Z,9.3
2024-05-09T23:30:38.412Z,7.9
2024-05-09T23:35:57.889Z,7.4
2024-05-09T23:41:29.192Z,7.9
2024-05-09T23:47:01.437Z,6.9
2024-05-09T23:52:32.694Z,6.9
2024-05-09T23:58:04.420Z,7.2
